Omidiyeh, Iran
Current Conditions -  °F | °C
As of 4:00 PM on Friday 24 Oct 2014 (Local Time) from OIAG Reporting Station
Clear Clear  
Wind Chill: 33°   Ceiling: Unl
Heat Index: 33°   Visibility: 6mi
Dew Point: -1°   Wind: 12mph
Humidity: 11%   Direction: 310°NW
Pressure: 29.91"   Gusts: NA
Location:  30.75°N, 49.71°E
Report Text: OIAG 241300Z 31010KT CAVOK 33/M01 Q1013
Loading
Personal Weather Stations






























Interactive Weather Map
Tropical Storm Tracking
New forecast layout! Learn more

10-Day Weather Forecast

Advertisements
Track Severe Weather on mobile